createdAt,value
2022-08-11T00:01:54.823Z,99717.75
2022-08-11T00:04:24.954Z,99714.88
2022-08-11T00:06:54.358Z,99713.19
2022-08-11T00:09:23.166Z,99721.28
2022-08-11T00:11:52.619Z,99715.22
2022-08-11T00:14:22.373Z,99722.53
2022-08-11T00:16:54.972Z,99712.22
2022-08-11T00:20:14.733Z,99713.22
2022-08-11T00:22:20.822Z,99723.63
2022-08-11T00:24:53.732Z,99717.53
2022-08-11T00:27:32.236Z,99717.88
2022-08-11T00:29:58.976Z,99713.44
2022-08-11T00:32:27.700Z,99720.72
2022-08-11T00:35:54.508Z,99721.41
2022-08-11T00:37:48.925Z,99727.22
2022-08-11T00:40:23.390Z,99724.56
2022-08-11T00:42:59.955Z,99727.41
2022-08-11T00:45:29.869Z,99723.25
2022-08-11T00:48:05.166Z,99720.75
2022-08-11T00:50:45.674Z,99718.66
2022-08-11T00:53:38.937Z,99722.91
2022-08-11T00:56:49.854Z,99719.53
2022-08-11T00:59:42.234Z,99720.09
2022-08-11T01:02:18.360Z,99713.69
2022-08-11T01:05:23.381Z,99718.25
2022-08-11T01:08:30.070Z,99723.91
2022-08-11T01:11:18.322Z,99720.25
2022-08-11T01:14:34.552Z,99720.09
2022-08-11T01:17:33.848Z,99718.06
2022-08-11T01:20:47.803Z,99725.78
2022-08-11T01:23:31.352Z,99714.69
2022-08-11T01:26:54.571Z,99722.44
2022-08-11T01:29:54.376Z,99720.72
2022-08-11T01:33:02.457Z,99720.88
2022-08-11T01:35:56.536Z,99724.63
2022-08-11T01:39:00.009Z,99722.09
2022-08-11T01:41:42.903Z,99727.41
2022-08-11T01:44:25.462Z,99716.78
2022-08-11T01:46:56.949Z,99715.19
2022-08-11T01:50:07.141Z,99718.44
2022-08-11T01:52:30.998Z,99717.16
2022-08-11T01:55:12.566Z,99721.38
2022-08-11T01:57:47.381Z,99726.88
2022-08-11T02:00:18.933Z,99721.25
2022-08-11T02:02:54.296Z,99723.50
2022-08-11T02:05:28.944Z,99724.16
2022-08-11T02:08:03.327Z,99727.09
2022-08-11T02:10:38.436Z,99725.47
2022-08-11T02:13:16.746Z,99720.34
2022-08-11T02:15:50.040Z,99720.53
2022-08-11T02:18:23.842Z,99718.78
2022-08-11T02:20:56.702Z,99724.13
2022-08-11T02:24:04.578Z,99718.50
2022-08-11T02:26:21.792Z,99720.63
2022-08-11T02:28:59.719Z,99715.66
2022-08-11T02:32:14.234Z,99719.84
2022-08-11T02:34:32.829Z,99720.81
2022-08-11T02:37:10.327Z,99722.31
2022-08-11T02:39:52.981Z,99719.88
2022-08-11T02:42:32.438Z,99729.69
2022-08-11T02:45:19.230Z,99721.50
2022-08-11T02:47:55.832Z,99725.34
2022-08-11T02:50:26.505Z,99720.22
2022-08-11T02:53:00.205Z,99726.31
2022-08-11T02:55:48.898Z,99718.78
2022-08-11T02:58:33.154Z,99722.97
2022-08-11T03:01:12.112Z,99720.88
2022-08-11T03:03:48.835Z,99729.41
2022-08-11T03:06:26.868Z,99719.00
2022-08-11T03:09:00.374Z,99716.91
2022-08-11T03:11:50.492Z,99723.34
2022-08-11T03:14:21.714Z,99721.94
2022-08-11T03:16:55.366Z,99721.13
2022-08-11T03:19:29.788Z,99723.69
2022-08-11T03:22:05.494Z,99724.31
2022-08-11T03:24:43.691Z,99726.59
2022-08-11T03:27:27.255Z,99718.88
2022-08-11T03:30:05.371Z,99723.88
2022-08-11T03:32:37.979Z,99721.94
2022-08-11T03:35:09.302Z,99722.41
2022-08-11T03:37:50.955Z,99725.16
2022-08-11T03:40:36.012Z,99723.88
2022-08-11T03:43:18.538Z,99730.94
2022-08-11T03:46:05.909Z,99723.41
2022-08-11T03:48:43.409Z,99724.34
2022-08-11T03:51:19.243Z,99718.41
2022-08-11T03:54:00.657Z,99711.34
2022-08-11T03:57:00.833Z,99724.50
2022-08-11T04:00:11.071Z,99724.66
2022-08-11T04:03:08.970Z,99731.09
2022-08-11T04:06:18.036Z,99726.28
2022-08-11T04:09:17.965Z,99729.63
2022-08-11T04:12:36.013Z,99723.22
2022-08-11T04:15:41.633Z,99732.06
2022-08-11T04:18:41.289Z,99732.38
2022-08-11T04:21:21.074Z,99733.50
2022-08-11T04:24:35.300Z,99730.44
2022-08-11T04:27:44.730Z,99744.06
2022-08-11T04:30:17.357Z,99740.72
2022-08-11T04:33:29.980Z,99731.91
2022-08-11T04:36:20.154Z,99733.81
2022-08-11T04:39:09.566Z,99733.97
2022-08-11T04:42:22.913Z,99741.53
2022-08-11T04:45:32.286Z,99738.97
2022-08-11T04:48:19.460Z,99741.03
2022-08-11T04:51:16.328Z,99735.44
2022-08-11T04:53:58.391Z,99741.06
2022-08-11T04:56:28.843Z,99743.94
2022-08-11T04:59:40.446Z,99738.31
2022-08-11T05:02:41.789Z,99738.16
2022-08-11T05:05:21.033Z,99737.19
2022-08-11T05:08:33.117Z,99742.16
2022-08-11T05:11:51.805Z,99743.75
2022-08-11T05:14:32.072Z,99742.91
2022-08-11T05:17:04.296Z,99749.00
2022-08-11T05:19:30.949Z,99750.25
2022-08-11T05:21:59.359Z,99754.41
2022-08-11T05:24:31.255Z,99754.06
2022-08-11T05:27:02.872Z,99755.16
2022-08-11T05:29:41.190Z,99761.06
2022-08-11T05:32:12.326Z,99762.13
2022-08-11T05:34:44.489Z,99760.97
2022-08-11T05:37:26.643Z,99752.72
2022-08-11T05:39:57.613Z,99757.81
2022-08-11T05:42:30.468Z,99762.44
2022-08-11T05:45:00.985Z,99765.59
2022-08-11T05:47:27.950Z,99763.41
2022-08-11T05:49:54.861Z,99749.16
2022-08-11T05:52:31.828Z,99754.16
2022-08-11T05:55:06.147Z,99763.66
2022-08-11T05:57:49.054Z,99757.44
2022-08-11T06:00:19.246Z,99756.47
2022-08-11T06:02:49.360Z,99763.22
2022-08-11T06:05:16.654Z,99759.53
2022-08-11T06:07:50.131Z,99758.19
2022-08-11T06:10:29.970Z,99759.13
2022-08-11T06:12:58.702Z,99756.94
2022-08-11T06:15:26.266Z,99761.03
2022-08-11T06:17:55.072Z,99755.63
2022-08-11T06:20:23.546Z,99762.44
2022-08-11T06:22:58.588Z,99758.19
2022-08-11T06:25:31.470Z,99757.47
2022-08-11T06:27:59.698Z,99752.81
2022-08-11T06:30:34.991Z,99750.09
2022-08-11T06:33:04.604Z,99760.44
2022-08-11T06:35:39.313Z,99754.22
2022-08-11T06:38:12.334Z,99761.00
2022-08-11T06:40:46.366Z,99753.53
2022-08-11T06:43:19.615Z,99751.66
2022-08-11T06:45:55.247Z,99751.28
2022-08-11T06:48:24.070Z,99753.19
2022-08-11T06:50:56.589Z,99758.22
2022-08-11T06:53:24.716Z,99761.09
2022-08-11T06:55:57.785Z,99760.66
2022-08-11T06:58:29.749Z,99755.06
2022-08-11T07:00:58.650Z,99762.97
2022-08-11T07:03:28.659Z,99758.53
2022-08-11T07:06:05.252Z,99750.16
2022-08-11T07:09:01.551Z,99752.84
2022-08-11T07:12:09.370Z,99748.16
2022-08-11T07:14:41.450Z,99750.44
2022-08-11T07:17:11.122Z,99743.88
2022-08-11T07:19:43.188Z,99749.28
2022-08-11T07:22:10.870Z,99745.16
2022-08-11T07:24:59.644Z,99742.88
2022-08-11T07:27:40.798Z,99749.91
2022-08-11T07:30:10.185Z,99748.06
2022-08-11T07:32:45.043Z,99747.16
2022-08-11T07:35:16.562Z,99744.97
2022-08-11T07:37:47.515Z,99739.81
2022-08-11T07:40:14.671Z,99742.34
2022-08-11T07:42:44.034Z,99744.00
2022-08-11T07:45:11.616Z,99738.25
2022-08-11T07:47:40.172Z,99738.38
2022-08-11T07:50:09.812Z,99740.47
2022-08-11T07:52:37.478Z,99739.00
2022-08-11T07:55:08.564Z,99739.47
2022-08-11T07:58:14.524Z,99739.94
2022-08-11T08:00:29.859Z,99742.34
2022-08-11T08:02:59.411Z,99735.25
2022-08-11T08:05:26.223Z,99740.72
2022-08-11T08:07:52.843Z,99739.91
2022-08-11T08:10:22.354Z,99740.69
2022-08-11T08:12:49.136Z,99739.41
2022-08-11T08:15:17.607Z,99738.06
2022-08-11T08:17:45.789Z,99732.75
2022-08-11T08:20:37.265Z,99735.28
2022-08-11T08:23:05.242Z,99733.50
2022-08-11T08:25:34.907Z,99728.78
2022-08-11T08:28:05.483Z,99729.72
2022-08-11T08:30:32.310Z,99729.25
2022-08-11T08:33:00.436Z,99735.53
2022-08-11T08:35:32.533Z,99732.72
2022-08-11T08:37:59.733Z,99730.31
2022-08-11T08:40:27.190Z,99727.88
2022-08-11T08:42:56.145Z,99732.28
2022-08-11T08:45:24.695Z,99724.56
2022-08-11T08:47:58.485Z,99728.06
2022-08-11T08:50:30.630Z,99717.34
2022-08-11T08:53:04.212Z,99728.84
2022-08-11T08:55:31.989Z,99719.66
2022-08-11T09:03:38.129Z,99716.72
2022-08-11T09:05:57.055Z,99713.97
2022-08-11T09:08:24.623Z,99711.44
2022-08-11T09:10:52.179Z,99702.38
2022-08-11T09:13:19.539Z,99707.69
2022-08-11T09:15:46.351Z,99715.59
2022-08-11T09:18:13.136Z,99717.31
2022-08-11T09:20:40.244Z,99709.50
2022-08-11T09:24:06.415Z,99709.63
2022-08-11T09:25:59.138Z,99707.94
2022-08-11T09:28:28.513Z,99709.91
2022-08-11T09:30:56.737Z,99713.00
2022-08-11T09:33:24.780Z,99708.50
2022-08-11T09:35:52.812Z,99706.91
2022-08-11T09:38:24.244Z,99698.88
2022-08-11T09:40:56.161Z,99708.03
2022-08-11T09:43:25.173Z,99701.78
2022-08-11T09:45:53.716Z,99703.44
2022-08-11T09:48:23.741Z,99706.59
2022-08-11T09:50:52.831Z,99693.53
2022-08-11T09:53:37.344Z,99691.38
2022-08-11T09:56:12.034Z,99697.72
2022-08-11T09:58:42.786Z,99690.63
2022-08-11T10:01:11.141Z,99693.44
2022-08-11T10:03:41.711Z,99682.69
2022-08-11T10:06:10.567Z,99680.66
2022-08-11T10:08:42.974Z,99673.78
2022-08-11T10:11:12.163Z,99684.16
2022-08-11T10:14:33.947Z,99672.53
2022-08-11T10:16:35.424Z,99674.06
2022-08-11T10:19:04.433Z,99672.38
2022-08-11T10:21:36.948Z,99670.78
2022-08-11T10:24:06.883Z,99670.88
2022-08-11T10:26:34.147Z,99667.53
2022-08-11T10:29:13.102Z,99665.84
2022-08-11T10:31:57.387Z,99655.47
2022-08-11T10:34:29.193Z,99653.16
2022-08-11T10:36:58.077Z,99654.25
2022-08-11T10:39:27.025Z,99657.41
2022-08-11T10:42:08.619Z,99652.00
2022-08-11T10:44:39.336Z,99641.88
2022-08-11T10:47:07.530Z,99642.34
2022-08-11T10:49:34.689Z,99643.09
2022-08-11T10:52:02.806Z,99641.00
2022-08-11T10:54:33.326Z,99636.09
2022-08-11T10:57:00.894Z,99635.13
2022-08-11T10:59:28.725Z,99634.78
2022-08-11T11:01:56.228Z,99630.81
2022-08-11T11:04:26.480Z,99628.00
2022-08-11T11:07:03.051Z,99628.88
2022-08-11T11:09:33.146Z,99617.53
2022-08-11T11:12:03.293Z,99626.66
2022-08-11T11:14:32.419Z,99630.19
2022-08-11T11:17:03.027Z,99628.47
2022-08-11T11:19:30.138Z,99616.41
2022-08-11T11:21:59.300Z,99615.69
2022-08-11T11:24:41.835Z,99613.16
2022-08-11T11:27:20.936Z,99612.25
2022-08-11T11:29:59.860Z,99610.56
2022-08-11T11:32:37.342Z,99621.34
2022-08-11T11:35:36.428Z,99611.41
2022-08-11T11:38:08.378Z,99613.72
2022-08-11T11:40:40.351Z,99600.56
2022-08-11T11:43:07.408Z,99606.53
2022-08-11T11:45:34.325Z,99600.31
2022-08-11T11:48:01.907Z,99593.97
2022-08-11T11:50:33.061Z,99584.91
2022-08-11T11:53:01.324Z,99587.06
2022-08-11T11:55:29.635Z,99591.13
2022-08-11T11:58:02.734Z,99588.41
2022-08-11T12:00:33.150Z,99589.53
2022-08-11T12:03:03.091Z,99592.72
2022-08-11T12:05:33.382Z,99592.28
2022-08-11T12:08:05.298Z,99582.53
2022-08-11T12:10:41.118Z,99569.78
2022-08-11T12:13:09.165Z,99569.53
2022-08-11T12:16:06.130Z,99564.34
2022-08-11T12:18:24.402Z,99572.13
2022-08-11T12:20:51.282Z,99563.84
2022-08-11T12:23:18.173Z,99562.94
2022-08-11T12:25:45.556Z,99562.25
2022-08-11T12:28:13.765Z,99557.38
2022-08-11T12:30:40.778Z,99542.25
2022-08-11T12:33:07.822Z,99551.78
2022-08-11T12:35:36.779Z,99539.63
2022-08-11T12:38:10.676Z,99544.31
2022-08-11T12:41:13.733Z,99534.09
2022-08-11T12:43:37.730Z,99538.00
2022-08-11T12:46:08.341Z,99527.47
2022-08-11T12:48:58.562Z,99535.28
2022-08-11T12:51:28.724Z,99524.13
2022-08-11T12:53:58.818Z,99524.75
2022-08-11T12:56:28.505Z,99524.88
2022-08-11T12:58:57.722Z,99513.09
2022-08-11T13:01:24.612Z,99512.69
2022-08-11T13:03:52.376Z,99511.72
2022-08-11T13:06:24.674Z,99522.16
2022-08-11T13:08:52.026Z,99506.19
2022-08-11T13:11:19.496Z,99501.13
2022-08-11T13:13:53.954Z,99509.84
2022-08-11T13:16:26.374Z,99508.31
2022-08-11T13:18:53.785Z,99511.38
2022-08-11T13:21:22.276Z,99511.19
2022-08-11T13:23:59.754Z,99500.00
2022-08-11T13:26:43.601Z,99513.00
2022-08-11T13:29:16.748Z,99504.69
2022-08-11T13:31:45.510Z,99502.97
2022-08-11T13:34:12.834Z,99498.06
2022-08-11T13:36:40.242Z,99492.59
2022-08-11T13:39:08.143Z,99502.72
2022-08-11T13:41:35.185Z,99491.06
2022-08-11T13:44:02.764Z,99490.38
2022-08-11T13:46:29.999Z,99489.84
2022-08-11T13:49:00.949Z,99483.03
2022-08-11T13:51:34.326Z,99479.69
2022-08-11T13:54:04.571Z,99478.38
2022-08-11T13:56:32.569Z,99480.25
2022-08-11T13:59:01.199Z,99482.53
2022-08-11T14:02:03.554Z,99481.81
2022-08-11T14:04:30.552Z,99480.53
2022-08-11T14:07:00.140Z,99475.09
2022-08-11T14:09:30.105Z,99466.28
2022-08-11T14:12:21.266Z,99469.38
2022-08-11T14:14:51.601Z,99463.94
2022-08-11T14:17:44.169Z,99468.34
2022-08-11T14:20:37.818Z,99457.22
2022-08-11T14:23:00.403Z,99456.16
2022-08-11T14:26:00.869Z,99462.59
2022-08-11T14:28:33.491Z,99455.84
2022-08-11T14:31:04.217Z,99443.53
2022-08-11T14:33:58.294Z,99440.50
2022-08-11T14:36:21.406Z,99443.16
2022-08-11T14:38:48.499Z,99440.06
2022-08-11T14:41:16.057Z,99441.88
2022-08-11T14:44:14.246Z,99440.78
2022-08-11T14:49:00.198Z,99437.22
2022-08-11T14:51:28.818Z,99435.91
2022-08-11T14:53:58.968Z,99433.34
2022-08-11T14:56:26.108Z,99426.38
2022-08-11T14:58:53.446Z,99426.91
2022-08-11T15:01:20.238Z,99432.03
2022-08-11T15:04:35.369Z,99428.06
2022-08-11T15:06:35.025Z,99428.31
2022-08-11T15:09:07.023Z,99419.13
2022-08-11T15:11:35.596Z,99423.00
2022-08-11T15:14:05.968Z,99433.09
2022-08-11T15:16:33.081Z,99424.00
2022-08-11T15:19:00.441Z,99413.06
2022-08-11T15:21:27.064Z,99408.56
2022-08-11T15:23:55.078Z,99406.88
2022-08-11T15:26:28.408Z,99411.78
2022-08-11T15:28:55.126Z,99412.44
2022-08-11T15:31:24.919Z,99401.16
2022-08-11T15:33:54.009Z,99405.22
2022-08-11T15:36:21.275Z,99406.13
2022-08-11T15:38:54.891Z,99397.34
2022-08-11T15:41:26.113Z,99400.16
2022-08-11T15:43:55.797Z,99396.53
2022-08-11T15:46:29.602Z,99392.25
2022-08-11T15:48:59.394Z,99390.13
2022-08-11T15:51:33.054Z,99386.25
2022-08-11T15:54:09.053Z,99392.31
2022-08-11T15:56:41.457Z,99390.91
2022-08-11T15:59:41.640Z,99385.84
2022-08-11T16:01:59.694Z,99384.59
2022-08-11T16:04:29.097Z,99378.53
2022-08-11T16:06:59.919Z,99379.50
2022-08-11T16:09:37.593Z,99374.50
2022-08-11T16:12:22.193Z,99374.91
2022-08-11T16:14:54.221Z,99378.16
2022-08-11T16:17:23.761Z,99373.06
2022-08-11T16:19:53.154Z,99371.84
2022-08-11T16:22:23.765Z,99371.00
2022-08-11T16:27:05.339Z,99365.56
2022-08-11T16:27:43.117Z,99369.88
2022-08-11T16:30:10.613Z,99375.53
2022-08-11T16:32:40.341Z,99377.09
2022-08-11T16:35:10.919Z,99367.03
2022-08-11T16:37:38.952Z,99353.31
2022-08-11T16:40:07.245Z,99358.19
2022-08-11T16:43:05.309Z,99359.41
2022-08-11T16:45:22.786Z,99352.69
2022-08-11T16:48:02.927Z,99350.69
2022-08-11T16:50:39.505Z,99348.25
2022-08-11T16:53:06.326Z,99351.06
2022-08-11T16:55:51.753Z,99359.91
2022-08-11T16:58:21.891Z,99346.28
2022-08-11T17:00:51.275Z,99354.03
2022-08-11T17:03:20.030Z,99351.38
2022-08-11T17:05:53.889Z,99347.38
2022-08-11T17:08:26.374Z,99346.66
2022-08-11T17:11:01.516Z,99353.53
2022-08-11T17:13:35.218Z,99351.16
2022-08-11T17:16:05.961Z,99353.63
2022-08-11T17:18:36.010Z,99353.09
2022-08-11T17:21:03.840Z,99348.69
2022-08-11T17:23:33.261Z,99354.53
2022-08-11T17:26:04.484Z,99349.50
2022-08-11T17:28:34.352Z,99346.91
2022-08-11T17:31:03.307Z,99349.31
2022-08-11T17:33:45.588Z,99343.97
2022-08-11T17:36:13.075Z,99348.84
2022-08-11T17:38:41.365Z,99346.41
2022-08-11T17:41:08.335Z,99346.56
2022-08-11T17:43:35.282Z,99344.94
2022-08-11T17:46:03.471Z,99345.00
2022-08-11T17:48:33.643Z,99341.91
2022-08-11T17:51:11.570Z,99344.47
2022-08-11T17:53:40.669Z,99345.69
2022-08-11T17:56:30.060Z,99346.94
2022-08-11T17:58:58.516Z,99355.31
2022-08-11T18:01:28.156Z,99357.09
2022-08-11T18:03:58.016Z,99357.38
2022-08-11T18:06:33.633Z,99361.31
2022-08-11T18:09:03.977Z,99360.13
2022-08-11T18:12:10.096Z,99355.56
2022-08-11T18:14:20.966Z,99353.75
2022-08-11T18:16:49.218Z,99354.63
2022-08-11T18:19:16.222Z,99357.59
2022-08-11T18:21:45.416Z,99360.53
2022-08-11T18:24:37.342Z,99348.44
2022-08-11T18:27:06.077Z,99360.50
2022-08-11T18:29:42.156Z,99359.22
2022-08-11T18:32:12.149Z,99363.81
2022-08-11T18:34:50.250Z,99362.06
2022-08-11T18:37:28.567Z,99359.22
2022-08-11T18:40:00.147Z,99364.84
2022-08-11T18:42:30.074Z,99367.25
2022-08-11T18:45:01.287Z,99369.72
2022-08-11T18:47:31.728Z,99365.97
2022-08-11T18:50:05.092Z,99372.63
2022-08-11T18:52:33.953Z,99369.00
2022-08-11T18:55:03.930Z,99383.16
2022-08-11T18:57:30.539Z,99380.22
2022-08-11T19:00:02.436Z,99378.56
2022-08-11T19:02:32.181Z,99373.69
2022-08-11T19:05:08.983Z,99377.19
2022-08-11T19:07:37.894Z,99387.81
2022-08-11T19:10:05.652Z,99382.91
2022-08-11T19:12:42.479Z,99388.38
2022-08-11T19:15:10.703Z,99388.50
2022-08-11T19:17:43.755Z,99392.25
2022-08-11T19:20:15.251Z,99392.78
2022-08-11T19:22:43.322Z,99391.47
2022-08-11T19:25:11.849Z,99395.16
2022-08-11T19:27:41.256Z,99395.63
2022-08-11T19:30:14.015Z,99397.72
2022-08-11T19:32:43.272Z,99391.91
2022-08-11T19:35:12.022Z,99396.00
2022-08-11T19:37:44.515Z,99400.03
2022-08-11T19:40:12.577Z,99389.75
2022-08-11T19:42:41.231Z,99398.16
2022-08-11T19:45:08.157Z,99393.41
2022-08-11T19:47:36.009Z,99396.25
2022-08-11T19:50:05.009Z,99393.13
2022-08-11T19:52:32.769Z,99398.66
2022-08-11T19:55:00.627Z,99397.88
2022-08-11T19:57:29.452Z,99397.50
2022-08-11T19:59:56.921Z,99395.16
2022-08-11T20:02:23.990Z,99392.78
2022-08-11T20:04:51.023Z,99391.19
2022-08-11T20:07:19.737Z,99393.91
2022-08-11T20:10:05.213Z,99393.09
2022-08-11T20:12:36.196Z,99398.59
2022-08-11T20:15:03.992Z,99396.63
2022-08-11T20:17:37.636Z,99410.03
2022-08-11T20:20:07.399Z,99405.22
2022-08-11T20:22:35.447Z,99398.88
2022-08-11T20:25:04.208Z,99401.97
2022-08-11T20:27:31.609Z,99397.16
2022-08-11T20:30:00.143Z,99399.13
2022-08-11T20:32:27.877Z,99398.31
2022-08-11T20:34:57.339Z,99400.25
2022-08-11T20:37:26.573Z,99403.34
2022-08-11T20:39:56.373Z,99401.69
2022-08-11T20:42:28.432Z,99397.34
2022-08-11T20:44:58.585Z,99400.03
2022-08-11T20:47:27.421Z,99396.00
2022-08-11T20:49:58.664Z,99401.03
2022-08-11T20:52:28.926Z,99404.09
2022-08-11T20:54:59.153Z,99406.44
2022-08-11T20:57:58.938Z,99405.97
2022-08-11T21:00:16.133Z,99408.28
2022-08-11T21:03:03.054Z,99409.78
2022-08-11T21:06:10.208Z,99409.69
2022-08-11T21:08:19.828Z,99408.44
2022-08-11T21:10:54.774Z,99418.63
2022-08-11T21:13:27.012Z,99414.19
2022-08-11T21:16:03.393Z,99417.69
2022-08-11T21:18:32.558Z,99414.38
2022-08-11T21:21:04.612Z,99414.72
2022-08-11T21:23:34.291Z,99414.22
2022-08-11T21:26:08.270Z,99417.25
2022-08-11T21:28:37.999Z,99413.69
2022-08-11T21:31:07.209Z,99416.75
2022-08-11T21:33:34.698Z,99424.56
2022-08-11T21:36:02.245Z,99422.50
2022-08-11T21:38:30.786Z,99425.53
2022-08-11T21:40:58.886Z,99423.44
2022-08-11T21:43:28.915Z,99421.78
2022-08-11T21:45:57.223Z,99420.09
2022-08-11T21:48:25.907Z,99430.59
2022-08-11T21:50:52.579Z,99427.31
2022-08-11T21:53:19.629Z,99428.00
2022-08-11T21:55:46.530Z,99431.03
2022-08-11T21:58:14.590Z,99429.75
2022-08-11T22:00:43.825Z,99434.03
2022-08-11T22:03:12.487Z,99424.53
2022-08-11T22:05:41.364Z,99432.41
2022-08-11T22:08:08.743Z,99429.13
2022-08-11T22:10:40.643Z,99428.59
2022-08-11T22:13:11.109Z,99428.91
2022-08-11T22:15:39.944Z,99434.78
2022-08-11T22:18:09.444Z,99433.09
2022-08-11T22:20:38.203Z,99419.31
2022-08-11T22:23:06.095Z,99424.72
2022-08-11T22:25:38.699Z,99427.06
2022-08-11T22:28:05.711Z,99434.03
2022-08-11T22:30:33.291Z,99437.09
2022-08-11T22:33:01.684Z,99439.31
2022-08-11T22:35:32.053Z,99447.53
2022-08-11T22:37:59.861Z,99437.16
2022-08-11T22:40:26.531Z,99439.88
2022-08-11T22:42:53.197Z,99438.56
2022-08-11T22:45:20.336Z,99438.41
2022-08-11T22:47:48.578Z,99435.63
2022-08-11T22:50:16.104Z,99431.50
2022-08-11T22:52:46.350Z,99430.66
2022-08-11T22:55:13.654Z,99432.84
2022-08-11T22:58:00.498Z,99436.59
2022-08-11T23:00:30.249Z,99438.81
2022-08-11T23:02:58.311Z,99438.66
2022-08-11T23:05:25.877Z,99441.72
2022-08-11T23:07:55.310Z,99438.09
2022-08-11T23:10:23.106Z,99439.59
2022-08-11T23:12:50.145Z,99438.72
2022-08-11T23:15:17.052Z,99438.63
2022-08-11T23:17:44.304Z,99442.47
2022-08-11T23:20:21.301Z,99441.94
2022-08-11T23:22:52.050Z,99446.94
2022-08-11T23:25:20.409Z,99445.16
2022-08-11T23:27:47.868Z,99439.50
2022-08-11T23:30:14.506Z,99434.63
2022-08-11T23:32:45.875Z,99434.97
2022-08-11T23:35:38.679Z,99424.28
2022-08-11T23:38:00.394Z,99430.84
2022-08-11T23:40:28.402Z,99428.34
2022-08-11T23:42:55.332Z,99424.28
2022-08-11T23:45:23.709Z,99426.91
2022-08-11T23:47:51.371Z,99426.41
2022-08-11T23:50:19.070Z,99430.19
2022-08-11T23:52:45.810Z,99424.19
2022-08-11T23:55:12.636Z,99428.34
2022-08-11T23:57:47.604Z,99425.75
